createdAt,value
2022-12-19T00:00:14.839Z,1.50
2022-12-19T00:03:01.843Z,1.50
2022-12-19T00:05:48.879Z,1.50
2022-12-19T00:08:35.445Z,1.50
2022-12-19T00:11:24.228Z,1.50
2022-12-19T00:14:12.983Z,1.50
2022-12-19T00:16:59.516Z,1.50
2022-12-19T00:19:46.348Z,1.50
2022-12-19T00:22:32.774Z,1.50
2022-12-19T00:25:19.345Z,1.50
2022-12-19T00:28:07.338Z,1.50
2022-12-19T00:30:55.635Z,1.50
2022-12-19T00:33:44.021Z,1.50
2022-12-19T00:36:32.847Z,1.40
2022-12-19T00:39:19.612Z,1.40
2022-12-19T00:42:06.169Z,1.40
2022-12-19T00:44:52.942Z,1.40
2022-12-19T00:47:40.761Z,1.40
2022-12-19T00:50:27.362Z,1.50
2022-12-19T00:53:13.897Z,1.50
2022-12-19T00:56:03.283Z,1.50
2022-12-19T00:58:50.072Z,1.50
2022-12-19T01:01:40.488Z,1.50
2022-12-19T01:04:29.788Z,1.50
2022-12-19T01:07:17.179Z,1.50
2022-12-19T01:10:03.980Z,1.60
2022-12-19T01:12:49.652Z,1.60
2022-12-19T01:15:39.720Z,1.60
2022-12-19T01:18:26.190Z,1.60
2022-12-19T01:21:14.002Z,1.60
2022-12-19T01:24:00.719Z,1.70
2022-12-19T01:26:47.160Z,1.70
2022-12-19T01:29:34.653Z,1.70
2022-12-19T01:32:23.554Z,1.70
2022-12-19T01:35:21.396Z,1.70
2022-12-19T01:38:13.447Z,1.70
2022-12-19T01:41:00.199Z,1.70
2022-12-19T01:44:01.683Z,1.80
2022-12-19T01:46:51.098Z,1.80
2022-12-19T01:49:38.521Z,1.80
2022-12-19T01:52:25.837Z,1.80
2022-12-19T01:55:15.448Z,1.80
2022-12-19T01:58:03.413Z,1.80
2022-12-19T02:00:49.897Z,1.80
2022-12-19T02:03:39.043Z,1.80
2022-12-19T02:06:26.339Z,1.80
2022-12-19T02:09:13.299Z,1.80
2022-12-19T02:12:01.504Z,1.80
2022-12-19T02:14:48.793Z,1.90
2022-12-19T02:17:45.313Z,1.90
2022-12-19T02:21:03.192Z,1.90
2022-12-19T02:24:30.520Z,2.00
2022-12-19T02:27:46.821Z,1.90
2022-12-19T02:30:46.400Z,2.00
2022-12-19T02:33:37.984Z,2.00
2022-12-19T02:36:30.527Z,2.00
2022-12-19T02:39:27.323Z,2.00
2022-12-19T02:42:23.600Z,2.00
2022-12-19T02:45:23.362Z,2.00
2022-12-19T02:48:19.465Z,2.10
2022-12-19T02:51:06.385Z,2.00
2022-12-19T02:53:53.188Z,2.00
2022-12-19T02:56:51.000Z,2.10
2022-12-19T02:59:51.556Z,2.10
2022-12-19T03:03:00.337Z,2.10
2022-12-19T03:06:02.639Z,2.10
2022-12-19T03:08:56.577Z,2.10
2022-12-19T03:11:43.881Z,2.20
2022-12-19T03:14:32.475Z,2.10
2022-12-19T03:17:19.212Z,2.10
2022-12-19T03:20:11.516Z,2.20
2022-12-19T03:22:59.373Z,2.20
2022-12-19T03:25:50.995Z,2.10
2022-12-19T03:28:57.197Z,2.20
2022-12-19T03:31:45.550Z,2.20
2022-12-19T03:34:36.307Z,2.20
2022-12-19T03:37:26.781Z,2.20
2022-12-19T03:40:18.499Z,2.20
2022-12-19T03:43:09.620Z,2.20
2022-12-19T03:46:02.459Z,2.20
2022-12-19T03:48:51.021Z,2.20
2022-12-19T03:51:47.278Z,2.20
2022-12-19T03:54:40.677Z,2.20
2022-12-19T03:57:34.384Z,2.20
2022-12-19T04:00:21.957Z,2.20
2022-12-19T04:03:09.963Z,2.30
2022-12-19T04:05:58.528Z,2.20
2022-12-19T04:08:46.249Z,2.30
2022-12-19T04:11:39.255Z,2.30
2022-12-19T04:14:31.954Z,2.30
2022-12-19T04:17:26.416Z,2.30
2022-12-19T04:20:15.696Z,2.30
2022-12-19T04:23:09.540Z,2.30
2022-12-19T04:26:01.521Z,2.40
2022-12-19T04:28:51.899Z,2.40
2022-12-19T04:31:40.413Z,2.40
2022-12-19T04:34:27.155Z,2.40
2022-12-19T04:37:13.679Z,2.40
2022-12-19T04:40:00.687Z,2.40
2022-12-19T04:42:47.516Z,2.40
2022-12-19T04:45:33.869Z,2.50
2022-12-19T04:48:22.441Z,2.50
2022-12-19T04:51:09.139Z,2.50
2022-12-19T04:53:55.548Z,2.50
2022-12-19T04:56:42.127Z,2.60
2022-12-19T04:59:28.774Z,2.60
2022-12-19T05:02:15.229Z,2.60
2022-12-19T05:05:03.645Z,2.70
2022-12-19T05:07:51.297Z,2.70
2022-12-19T05:10:38.623Z,2.70
2022-12-19T05:13:25.409Z,2.70
2022-12-19T05:16:13.665Z,2.70
2022-12-19T05:19:00.908Z,2.70
2022-12-19T05:21:48.845Z,2.80
2022-12-19T05:24:35.585Z,2.70
2022-12-19T05:27:22.111Z,2.70
2022-12-19T05:30:09.722Z,2.70
2022-12-19T05:32:56.341Z,2.70
2022-12-19T05:35:42.968Z,2.70
2022-12-19T05:38:31.402Z,2.70
2022-12-19T05:41:19.833Z,2.60
2022-12-19T05:44:06.555Z,2.60
2022-12-19T05:46:53.291Z,2.60
2022-12-19T05:49:40.176Z,2.70
2022-12-19T05:52:26.726Z,2.60
2022-12-19T05:55:14.604Z,2.60
2022-12-19T05:58:02.290Z,2.60
2022-12-19T06:00:49.025Z,2.70
2022-12-19T06:03:35.854Z,2.70
2022-12-19T06:06:24.456Z,2.70
2022-12-19T06:09:10.843Z,2.60
2022-12-19T06:11:58.837Z,3.40
2022-12-19T06:14:45.579Z,2.70
2022-12-19T06:17:31.997Z,2.70
2022-12-19T06:20:18.732Z,2.70
2022-12-19T06:23:05.297Z,2.70
2022-12-19T06:25:51.673Z,2.70
2022-12-19T06:28:39.700Z,2.70
2022-12-19T06:31:26.879Z,2.70
2022-12-19T06:34:22.056Z,2.70
2022-12-19T06:37:20.087Z,2.70
2022-12-19T06:40:07.733Z,2.70
2022-12-19T06:42:53.426Z,2.70
2022-12-19T06:45:41.827Z,2.70
2022-12-19T06:48:29.008Z,2.70
2022-12-19T06:51:15.792Z,2.70
2022-12-19T06:54:02.526Z,2.70
2022-12-19T06:56:49.211Z,2.70
2022-12-19T06:59:35.667Z,2.70
2022-12-19T07:02:29.651Z,2.80
2022-12-19T07:05:16.283Z,2.80
2022-12-19T07:08:02.864Z,2.70
2022-12-19T07:10:49.601Z,2.80
2022-12-19T07:13:36.539Z,2.80
2022-12-19T07:16:23.037Z,2.80
2022-12-19T07:19:11.658Z,2.80
2022-12-19T07:22:01.007Z,2.80
2022-12-19T07:24:47.952Z,2.80
2022-12-19T07:27:36.156Z,2.80
2022-12-19T07:30:23.334Z,2.90
2022-12-19T07:33:11.822Z,2.80
2022-12-19T07:36:01.022Z,2.80
2022-12-19T07:38:47.672Z,2.90
2022-12-19T07:41:37.145Z,2.90
2022-12-19T07:44:23.897Z,2.90
2022-12-19T07:47:10.727Z,2.90
2022-12-19T07:49:57.314Z,2.90
2022-12-19T07:52:45.200Z,2.90
2022-12-19T07:55:31.963Z,2.90
2022-12-19T07:58:18.499Z,2.90
2022-12-19T08:01:06.473Z,2.90
2022-12-19T08:03:56.276Z,2.90
2022-12-19T08:06:43.132Z,3.00
2022-12-19T08:09:31.776Z,3.00
2022-12-19T08:12:18.425Z,3.10
2022-12-19T08:15:06.011Z,3.00
2022-12-19T08:17:56.121Z,3.10
2022-12-19T08:20:46.574Z,3.10
2022-12-19T08:23:34.624Z,3.10
2022-12-19T08:26:25.850Z,3.10
2022-12-19T08:29:12.381Z,3.20
2022-12-19T08:31:58.835Z,3.20
2022-12-19T08:34:45.832Z,3.20
2022-12-19T08:37:32.365Z,3.20
2022-12-19T08:40:19.488Z,3.20
2022-12-19T08:43:07.194Z,3.30
2022-12-19T08:45:53.919Z,3.30
2022-12-19T08:48:41.026Z,3.30
2022-12-19T08:51:27.689Z,3.40
2022-12-19T08:54:14.220Z,3.40
2022-12-19T08:57:01.109Z,3.40
2022-12-19T08:59:48.931Z,3.40
2022-12-19T09:02:36.200Z,3.40
2022-12-19T09:06:03.750Z,3.50
2022-12-19T09:08:30.029Z,3.50
2022-12-19T09:11:18.414Z,3.60
2022-12-19T09:14:05.955Z,3.60
2022-12-19T09:16:54.176Z,3.60
2022-12-19T09:19:42.996Z,3.70
2022-12-19T09:22:32.072Z,3.70
2022-12-19T09:25:18.745Z,3.70
2022-12-19T09:31:14.660Z,3.80
2022-12-19T09:34:02.888Z,3.80
2022-12-19T09:36:50.553Z,3.90
2022-12-19T09:39:37.471Z,3.90
2022-12-19T09:42:43.103Z,4.00
2022-12-19T09:45:44.359Z,4.00
2022-12-19T09:51:13.400Z,4.10
2022-12-19T09:54:03.611Z,4.10
2022-12-19T09:56:58.779Z,4.20
2022-12-19T09:59:50.346Z,4.30
2022-12-19T10:02:43.280Z,4.40
2022-12-19T10:06:35.790Z,4.30
2022-12-19T10:08:50.022Z,4.40
2022-12-19T10:12:38.272Z,4.50
2022-12-19T10:15:15.908Z,4.50
2022-12-19T10:18:31.134Z,4.60
2022-12-19T10:21:59.017Z,4.60
2022-12-19T10:25:08.103Z,4.60
2022-12-19T10:28:03.651Z,4.70
2022-12-19T10:31:03.231Z,4.70
2022-12-19T10:34:01.498Z,4.80
2022-12-19T10:40:19.144Z,4.90
2022-12-19T10:43:32.861Z,4.90
2022-12-19T10:46:31.383Z,4.90
2022-12-19T10:49:21.892Z,5.10
2022-12-19T10:52:10.657Z,5.10
2022-12-19T10:54:57.810Z,5.10
2022-12-19T10:57:45.968Z,5.20
2022-12-19T11:00:33.215Z,5.20
2022-12-19T11:03:20.235Z,5.30
2022-12-19T11:06:07.951Z,5.30
2022-12-19T11:09:12.778Z,5.40
2022-12-19T11:14:36.538Z,5.40
2022-12-19T11:19:24.427Z,5.40
2022-12-19T11:27:30.647Z,5.40
2022-12-19T11:27:50.054Z,5.40
2022-12-19T11:29:25.068Z,5.30
2022-12-19T11:30:09.082Z,5.30
2022-12-19T11:31:54.664Z,5.40
2022-12-19T11:34:16.107Z,5.40
2022-12-19T11:37:17.951Z,5.40
2022-12-19T11:40:12.744Z,5.40
2022-12-19T11:43:42.467Z,5.50
2022-12-19T11:46:26.594Z,5.40
2022-12-19T11:49:25.015Z,5.50
2022-12-19T11:53:01.832Z,5.60
2022-12-19T11:55:29.237Z,5.60
2022-12-19T11:58:15.956Z,5.70
2022-12-19T12:01:11.321Z,5.70
2022-12-19T12:04:17.106Z,5.70
2022-12-19T12:07:11.865Z,5.80
2022-12-19T12:14:00.324Z,5.80
2022-12-19T12:21:19.812Z,5.80
2022-12-19T12:31:04.927Z,5.90
2022-12-19T12:31:09.000Z,6.00
2022-12-19T12:31:15.935Z,6.10
2022-12-19T12:31:51.878Z,6.10
2022-12-19T12:32:03.751Z,6.10
2022-12-19T12:35:32.828Z,6.20
2022-12-19T12:39:51.082Z,6.30
2022-12-19T12:42:50.157Z,6.30
2022-12-19T12:45:39.971Z,6.30
2022-12-19T12:48:33.963Z,6.40
2022-12-19T12:51:22.770Z,6.40
2022-12-19T12:54:14.760Z,6.40
2022-12-19T12:57:02.360Z,6.40
2022-12-19T12:59:49.194Z,6.40
2022-12-19T13:02:35.767Z,6.40
2022-12-19T13:05:42.061Z,6.40
2022-12-19T13:08:37.810Z,6.50
2022-12-19T13:11:56.815Z,6.40
2022-12-19T13:14:49.590Z,6.50
2022-12-19T13:18:09.340Z,6.50
2022-12-19T13:20:55.755Z,6.60
2022-12-19T13:23:52.710Z,6.60
2022-12-19T13:26:51.014Z,6.60
2022-12-19T13:29:57.213Z,6.60
2022-12-19T13:33:10.143Z,6.60
2022-12-19T13:39:46.424Z,6.60
2022-12-19T13:39:54.296Z,6.50
2022-12-19T13:42:33.572Z,6.50
2022-12-19T13:45:26.946Z,6.40
2022-12-19T13:48:18.089Z,6.40
2022-12-19T13:51:06.676Z,6.40
2022-12-19T13:53:59.646Z,6.40
2022-12-19T13:56:48.056Z,6.40
2022-12-19T13:59:38.969Z,6.40
2022-12-19T14:02:31.141Z,6.50
2022-12-19T14:05:48.466Z,6.50
2022-12-19T14:08:31.307Z,6.50
2022-12-19T14:11:37.733Z,6.60
2022-12-19T14:14:45.185Z,6.60
2022-12-19T14:17:32.007Z,6.60
2022-12-19T14:22:02.212Z,6.70
2022-12-19T14:23:43.006Z,6.70
2022-12-19T14:28:22.351Z,6.70
2022-12-19T14:30:28.524Z,6.80
2022-12-19T14:33:45.707Z,6.90
2022-12-19T14:36:12.420Z,6.90
2022-12-19T14:39:25.272Z,6.90
2022-12-19T14:43:55.590Z,6.90
2022-12-19T14:52:51.479Z,6.90
2022-12-19T14:54:01.160Z,7.00
2022-12-19T14:54:21.708Z,7.00
2022-12-19T14:56:19.651Z,7.00
2022-12-19T14:58:57.405Z,7.00
2022-12-19T15:01:53.854Z,7.00
2022-12-19T15:04:50.875Z,7.00
2022-12-19T15:07:44.066Z,6.90
2022-12-19T15:11:12.046Z,6.90
2022-12-19T15:14:56.589Z,6.90
2022-12-19T15:16:48.645Z,6.90
2022-12-19T15:19:35.430Z,6.80
2022-12-19T15:22:21.995Z,6.90
2022-12-19T15:25:28.477Z,6.90
2022-12-19T15:28:17.517Z,6.90
2022-12-19T15:31:10.995Z,6.80
2022-12-19T15:37:05.718Z,6.70
2022-12-19T15:39:52.382Z,6.70
2022-12-19T15:42:39.189Z,6.70
2022-12-19T15:45:26.488Z,6.70
2022-12-19T15:48:16.761Z,6.70
2022-12-19T15:51:05.200Z,6.70
2022-12-19T15:53:51.763Z,6.70
2022-12-19T15:56:40.259Z,6.70
2022-12-19T15:59:36.393Z,6.70
2022-12-19T16:02:42.676Z,6.70
2022-12-19T16:05:34.218Z,6.70
2022-12-19T16:08:26.109Z,6.70
2022-12-19T16:11:19.697Z,6.70
2022-12-19T16:14:06.373Z,6.70
2022-12-19T16:16:55.166Z,6.70
2022-12-19T16:19:42.356Z,6.60
2022-12-19T16:22:30.724Z,6.60
2022-12-19T16:25:18.731Z,6.60
2022-12-19T16:28:07.193Z,6.60
2022-12-19T16:30:54.774Z,6.50
2022-12-19T16:33:41.643Z,6.50
2022-12-19T16:36:27.961Z,6.50
2022-12-19T16:39:15.608Z,6.50
2022-12-19T16:42:05.022Z,6.50
2022-12-19T16:44:51.407Z,6.50
2022-12-19T16:47:38.145Z,6.40
2022-12-19T16:50:26.959Z,6.40
2022-12-19T16:53:13.397Z,6.40
2022-12-19T16:56:01.168Z,6.40
2022-12-19T16:58:49.051Z,6.40
2022-12-19T17:01:35.836Z,6.40
2022-12-19T17:04:24.748Z,6.40
2022-12-19T17:07:12.123Z,6.40
2022-12-19T17:09:58.951Z,6.40
2022-12-19T17:12:46.915Z,6.40
2022-12-19T17:15:36.927Z,6.40
2022-12-19T17:18:28.494Z,6.40
2022-12-19T17:21:18.226Z,6.40
2022-12-19T17:24:12.533Z,6.40
2022-12-19T17:26:58.928Z,6.40
2022-12-19T17:29:45.721Z,6.40
2022-12-19T17:32:33.875Z,6.40
2022-12-19T17:35:27.790Z,6.40
2022-12-19T17:38:16.731Z,6.40
2022-12-19T17:41:03.523Z,6.40
2022-12-19T17:43:49.984Z,6.40
2022-12-19T17:46:38.306Z,6.40
2022-12-19T17:49:30.055Z,6.40
2022-12-19T17:52:18.586Z,6.50
2022-12-19T17:55:15.374Z,6.50
2022-12-19T17:58:02.062Z,6.50
2022-12-19T18:00:49.009Z,6.50
2022-12-19T18:03:40.955Z,6.50
2022-12-19T18:06:29.119Z,6.50
2022-12-19T18:09:20.732Z,6.50
2022-12-19T18:12:07.630Z,6.50
2022-12-19T18:14:53.942Z,6.40
2022-12-19T18:17:41.021Z,6.40
2022-12-19T18:20:32.165Z,6.40
2022-12-19T18:23:22.760Z,6.40
2022-12-19T18:26:10.132Z,6.40
2022-12-19T18:28:56.513Z,6.50
2022-12-19T18:31:50.069Z,6.50
2022-12-19T18:34:37.657Z,6.40
2022-12-19T18:37:24.810Z,6.40
2022-12-19T18:40:23.268Z,6.40
2022-12-19T18:43:14.775Z,6.40
2022-12-19T18:46:01.728Z,6.40
2022-12-19T18:48:50.255Z,6.40
2022-12-19T18:51:38.032Z,6.40
2022-12-19T18:54:25.480Z,6.40
2022-12-19T18:57:14.752Z,6.40
2022-12-19T19:00:01.349Z,6.30
2022-12-19T19:02:51.236Z,6.30
2022-12-19T19:05:40.234Z,6.30
2022-12-19T19:08:29.745Z,6.30
2022-12-19T19:11:16.824Z,6.30
2022-12-19T19:14:04.981Z,6.30
2022-12-19T19:16:52.463Z,6.30
2022-12-19T19:19:39.041Z,6.30
2022-12-19T19:22:25.892Z,6.30
2022-12-19T19:25:14.253Z,6.30
2022-12-19T19:28:01.119Z,6.30
2022-12-19T19:30:49.201Z,6.30
2022-12-19T19:33:40.808Z,6.30
2022-12-19T19:36:32.194Z,6.30
2022-12-19T19:39:19.944Z,6.30
2022-12-19T19:42:06.962Z,6.30
2022-12-19T19:44:53.695Z,6.30
2022-12-19T19:47:42.493Z,6.30
2022-12-19T19:50:29.153Z,6.40
2022-12-19T19:53:15.692Z,6.40
2022-12-19T19:56:02.790Z,6.50
2022-12-19T19:58:49.570Z,6.50
2022-12-19T20:01:36.193Z,6.50
2022-12-19T20:04:24.357Z,6.60
2022-12-19T20:07:10.969Z,6.60
2022-12-19T20:09:57.598Z,6.60
2022-12-19T20:12:44.703Z,6.60
2022-12-19T20:15:31.783Z,6.60
2022-12-19T20:18:18.802Z,6.60
2022-12-19T20:21:12.735Z,6.60
2022-12-19T20:24:00.251Z,6.60
2022-12-19T20:26:46.835Z,6.70
2022-12-19T20:29:33.340Z,6.70
2022-12-19T20:32:20.110Z,6.70
2022-12-19T20:35:13.947Z,6.70
2022-12-19T20:38:02.963Z,6.80
2022-12-19T20:40:49.762Z,6.80
2022-12-19T20:43:37.647Z,6.80
2022-12-19T20:46:24.460Z,6.80
2022-12-19T20:49:10.947Z,6.80
2022-12-19T20:51:57.564Z,6.80
2022-12-19T20:54:45.553Z,6.80
2022-12-19T20:57:32.424Z,6.80
2022-12-19T21:00:20.151Z,6.80
2022-12-19T21:06:15.428Z,6.90
2022-12-19T21:09:02.349Z,6.90
2022-12-19T21:11:50.515Z,7.00
2022-12-19T21:14:37.100Z,7.10
2022-12-19T21:17:23.714Z,7.10
2022-12-19T21:20:11.121Z,7.10
2022-12-19T21:22:57.755Z,7.20
2022-12-19T21:25:44.934Z,7.20
2022-12-19T21:28:34.436Z,7.20
2022-12-19T21:31:25.196Z,7.20
2022-12-19T21:34:12.649Z,7.30
2022-12-19T21:36:59.324Z,7.30
2022-12-19T21:39:45.851Z,7.30
2022-12-19T21:42:32.500Z,7.30
2022-12-19T21:45:20.379Z,7.30
2022-12-19T21:48:07.241Z,7.20
2022-12-19T21:50:56.812Z,7.20
2022-12-19T21:53:43.609Z,7.30
2022-12-19T21:56:32.121Z,7.30
2022-12-19T21:59:18.905Z,7.30
2022-12-19T22:02:07.266Z,7.30
2022-12-19T22:07:21.830Z,7.40
2022-12-19T22:10:09.660Z,7.40
2022-12-19T22:12:56.382Z,7.40
2022-12-19T22:15:42.931Z,8.70
2022-12-19T22:18:30.836Z,7.50
2022-12-19T22:21:17.626Z,7.60
2022-12-19T22:24:04.990Z,7.60
2022-12-19T22:26:51.599Z,7.60
2022-12-19T22:29:38.261Z,7.70
2022-12-19T22:32:24.644Z,7.70
2022-12-19T22:35:12.572Z,7.70
2022-12-19T22:37:59.349Z,7.80
2022-12-19T22:40:45.829Z,7.80
2022-12-19T22:43:32.921Z,7.80
2022-12-19T22:46:22.048Z,7.90
2022-12-19T22:49:09.750Z,8.00
2022-12-19T22:51:57.484Z,7.90
2022-12-19T22:54:44.207Z,8.00
2022-12-19T22:57:30.679Z,8.00
2022-12-19T23:00:17.352Z,8.00
2022-12-19T23:03:04.227Z,8.10
2022-12-19T23:05:52.206Z,8.00
2022-12-19T23:08:40.766Z,8.00
2022-12-19T23:11:30.798Z,8.00
2022-12-19T23:14:19.473Z,8.00
2022-12-19T23:17:06.190Z,8.00
2022-12-19T23:19:53.085Z,8.00
2022-12-19T23:22:39.438Z,8.10
2022-12-19T23:25:27.752Z,8.00
2022-12-19T23:28:14.545Z,8.10
2022-12-19T23:31:04.974Z,8.10
2022-12-19T23:33:52.204Z,8.10
2022-12-19T23:39:46.204Z,8.10
2022-12-19T23:42:33.962Z,8.10
2022-12-19T23:45:21.572Z,8.10
2022-12-19T23:48:08.461Z,8.20
2022-12-19T23:50:59.593Z,8.20
2022-12-19T23:53:47.090Z,8.20
2022-12-19T23:56:34.060Z,8.20
2022-12-19T23:59:22.734Z,8.20
